Overview Statistics Trail Chart Weather Telemetry Raw packets
 

This is the latest recevied weather packets stored in our database for station/object N0QWM. If no packets are shown the sender has not sent any weather packets the latest 10 day(s).

<< 28 29 30 31 32 33 34 >>
Time Temp. Humidity Pressure Rain* Wind** Luminosity Snow
1788468866 37.22° C 48% 1019.2 hPa 0 mm - 309 W/m² -
1788468561 37.22° C 48% 1019.3 hPa 0 mm - 344 W/m² -
1788468258 37.78° C 48% 1019.2 hPa 0 mm - 321 W/m² -
1788467953 37.78° C 48% 1019 hPa 0 mm - 381 W/m² -
1788467648 37.22° C 48% 1019.3 hPa 0 mm - 475 W/m² -
1788467347 36.67° C 50% 1019 hPa 0 mm - 500 W/m² -
1788467073 36.67° C 49% 1019.4 hPa 0 mm - 499 W/m² -
1788466743 36.11° C 51% 1019.6 hPa 0 mm - 497 W/m² -
1788466439 35.56° C 52% 1019.7 hPa 0 mm - 515 W/m² -
1788466137 35.56° C 52% 1019.7 hPa 0 mm - 129 W/m² -
1788465832 36.11° C 52% 1019.9 hPa 0 mm - 130 W/m² -
1788465528 38.33° C 48% 1019.9 hPa 0 mm - 226 W/m² -
1788465224 38.33° C 47% 1019.6 hPa 0 mm - 601 W/m² -
1788464918 37.78° C 47% 1019.7 hPa 0 mm - 603 W/m² -
1788464614 37.22° C 49% 1020.2 hPa 0 mm - 577 W/m² -
1788464310 36.67° C 50% 1020.1 hPa 0 mm - 538 W/m² -
1788464006 35.56° C 50% 1020.4 hPa 0 mm - 601 W/m² -
1788463701 35.56° C 51% 1020.2 hPa 0 mm - 140 W/m² -
1788463396 36.67° C 50% 1020.3 hPa 0 mm - 119 W/m² -
1788463093 37.22° C 48% 1020.6 hPa 0 mm - 128 W/m² -
1788462788 36.67° C 49% 1020.5 hPa 0 mm - 623 W/m² -
1788462488 35.56° C 52% 1020.6 hPa 0 mm - 161 W/m² -
1788462183 35.56° C 51% 1020.6 hPa 0 mm - 116 W/m² -
1788461877 36.11° C 50% 1020.5 hPa 0 mm - 147 W/m² -
1788461577 36.11° C 50% 1020.5 hPa 0 mm - 283 W/m² -

* Rain latest hour (hover to see other rain measurements)
** Current wind speed in m/s (hover to see current wind gust speed)